createdAt,value
2023-04-17T00:00:34.906Z,5.20
2023-04-17T00:03:03.498Z,6.13
2023-04-17T00:05:33.947Z,6.37
2023-04-17T00:08:02.515Z,6.60
2023-04-17T00:10:30.574Z,6.00
2023-04-17T00:12:58.819Z,5.33
2023-04-17T00:15:27.244Z,5.80
2023-04-17T00:17:56.958Z,5.80
2023-04-17T00:20:25.146Z,6.07
2023-04-17T00:22:53.305Z,5.83
2023-04-17T00:25:21.317Z,6.40
2023-04-17T00:27:50.852Z,6.50
2023-04-17T00:30:19.184Z,6.13
2023-04-17T00:32:47.190Z,6.67
2023-04-17T00:35:16.998Z,6.53
2023-04-17T00:37:45.084Z,6.77
2023-04-17T00:40:13.962Z,6.67
2023-04-17T00:42:42.001Z,6.23
2023-04-17T00:45:11.541Z,6.37
2023-04-17T00:47:39.913Z,6.93
2023-04-17T00:50:09.609Z,6.83
2023-04-17T00:52:39.172Z,6.80
2023-04-17T00:55:09.009Z,5.97
2023-04-17T00:57:37.351Z,6.90
2023-04-17T01:00:08.560Z,5.80
2023-04-17T01:02:37.414Z,6.17
2023-04-17T01:05:06.135Z,6.10
2023-04-17T01:07:34.280Z,6.60
2023-04-17T01:10:03.985Z,6.03
2023-04-17T01:12:32.285Z,5.27
2023-04-17T01:15:00.334Z,5.17
2023-04-17T01:17:29.050Z,5.40
2023-04-17T01:19:59.311Z,5.80
2023-04-17T01:22:27.419Z,5.47
2023-04-17T01:24:56.973Z,5.60
2023-04-17T01:27:25.220Z,4.93
2023-04-17T01:29:53.383Z,5.47
2023-04-17T01:32:22.818Z,5.77
2023-04-17T01:34:59.110Z,5.30
2023-04-17T01:37:29.768Z,6.27
2023-04-17T01:40:05.193Z,5.40
2023-04-17T01:42:34.083Z,6.27
2023-04-17T01:45:03.355Z,5.93
2023-04-17T01:47:32.770Z,5.60
2023-04-17T01:50:02.331Z,5.43
2023-04-17T01:52:37.880Z,4.87
2023-04-17T01:55:16.067Z,5.90
2023-04-17T01:57:49.003Z,5.30
2023-04-17T02:00:20.742Z,5.27
2023-04-17T02:02:56.418Z,5.83
2023-04-17T02:08:31.569Z,6.50
2023-04-17T02:11:12.941Z,6.80
2023-04-17T02:13:59.461Z,6.83
2023-04-17T02:16:29.325Z,6.67
2023-04-17T02:19:03.579Z,6.10
2023-04-17T02:21:35.844Z,6.27
2023-04-17T02:24:06.704Z,6.63
2023-04-17T02:26:50.712Z,5.80
2023-04-17T02:29:36.590Z,5.43
2023-04-17T02:32:19.559Z,4.97
2023-04-17T02:34:49.070Z,5.27
2023-04-17T02:37:17.857Z,5.07
2023-04-17T02:39:46.386Z,4.70
2023-04-17T02:42:15.963Z,5.70
2023-04-17T02:44:46.830Z,4.67
2023-04-17T02:47:15.124Z,3.73
2023-04-17T02:49:43.777Z,4.60
2023-04-17T02:52:12.043Z,5.03
2023-04-17T02:58:21.930Z,4.87
2023-04-17T03:00:51.988Z,4.87
2023-04-17T03:03:20.454Z,4.40
2023-04-17T03:05:49.188Z,4.80
2023-04-17T03:08:18.073Z,4.50
2023-04-17T03:10:49.049Z,4.73
2023-04-17T03:13:17.563Z,4.63
2023-04-17T03:15:45.820Z,4.33
2023-04-17T03:18:16.120Z,4.17
2023-04-17T03:20:47.735Z,4.70
2023-04-17T03:23:16.682Z,3.83
2023-04-17T03:25:46.260Z,4.37
2023-04-17T03:28:14.406Z,4.70
2023-04-17T03:30:42.648Z,3.93
2023-04-17T03:33:11.289Z,4.13
2023-04-17T03:35:44.690Z,3.60
2023-04-17T03:38:18.750Z,3.60
2023-04-17T03:40:47.898Z,4.30
2023-04-17T03:43:16.085Z,4.07
2023-04-17T03:45:47.044Z,4.23
2023-04-17T03:48:15.287Z,4.20
2023-04-17T03:50:45.116Z,3.60
2023-04-17T03:53:14.011Z,4.10
2023-04-17T03:55:46.102Z,3.60
2023-04-17T03:58:14.802Z,3.90
2023-04-17T04:00:44.149Z,3.10
2023-04-17T04:03:18.739Z,3.80
2023-04-17T04:05:49.208Z,3.57
2023-04-17T04:08:17.555Z,4.17
2023-04-17T04:13:30.099Z,4.30
2023-04-17T04:16:11.461Z,4.13
2023-04-17T04:18:40.872Z,4.40
2023-04-17T04:21:25.965Z,4.70
2023-04-17T04:27:09.532Z,4.40
2023-04-17T04:29:38.525Z,5.40
2023-04-17T04:32:09.915Z,6.37
2023-04-17T04:34:41.058Z,5.30
2023-04-17T04:37:10.178Z,4.97
2023-04-17T04:39:39.575Z,4.60
2023-04-17T04:42:10.510Z,5.03
2023-04-17T04:44:42.352Z,4.77
2023-04-17T04:47:12.161Z,5.03
2023-04-17T04:49:41.102Z,5.53
2023-04-17T04:52:22.726Z,5.37
2023-04-17T04:54:52.216Z,5.43
2023-04-17T04:57:24.473Z,6.33
2023-04-17T04:59:53.266Z,6.67
2023-04-17T05:02:24.797Z,6.50
2023-04-17T05:04:53.641Z,6.30
2023-04-17T05:07:23.328Z,6.83
2023-04-17T05:09:55.072Z,7.20
2023-04-17T05:12:25.719Z,6.83
2023-04-17T05:14:53.877Z,7.00
2023-04-17T05:17:22.172Z,7.03
2023-04-17T05:19:51.048Z,7.10
2023-04-17T05:22:21.976Z,6.70
2023-04-17T05:24:51.020Z,6.07
2023-04-17T05:27:19.067Z,6.37
2023-04-17T05:29:48.598Z,5.87
2023-04-17T05:32:16.836Z,6.20
2023-04-17T05:34:44.864Z,5.90
2023-04-17T05:37:12.858Z,6.20
2023-04-17T05:39:41.446Z,5.43
2023-04-17T05:42:09.694Z,5.57
2023-04-17T05:44:37.854Z,5.13
2023-04-17T05:47:07.654Z,5.07
2023-04-17T05:49:36.312Z,5.47
2023-04-17T05:52:04.821Z,5.40
2023-04-17T05:54:33.035Z,5.77
2023-04-17T05:57:01.087Z,5.43
2023-04-17T05:59:29.244Z,5.40
2023-04-17T06:01:59.663Z,5.07
2023-04-17T06:04:30.191Z,4.77
2023-04-17T06:06:58.892Z,4.90
2023-04-17T06:09:27.554Z,4.90
2023-04-17T06:11:55.743Z,4.80
2023-04-17T06:14:23.865Z,5.67
2023-04-17T06:16:52.098Z,4.63
2023-04-17T06:19:20.948Z,4.60
2023-04-17T06:21:50.460Z,5.00
2023-04-17T06:24:19.066Z,5.13
2023-04-17T06:26:47.189Z,4.20
2023-04-17T06:29:15.720Z,4.90
2023-04-17T06:31:43.792Z,4.63
2023-04-17T06:34:12.093Z,4.20
2023-04-17T06:36:40.391Z,4.80
2023-04-17T06:39:10.342Z,4.57
2023-04-17T06:41:38.672Z,4.43
2023-04-17T06:44:08.841Z,4.70
2023-04-17T06:46:37.064Z,4.90
2023-04-17T06:49:05.092Z,4.50
2023-04-17T06:51:33.151Z,4.50
2023-04-17T06:54:01.679Z,5.20
2023-04-17T06:56:31.499Z,5.30
2023-04-17T06:59:04.521Z,5.90
2023-04-17T07:01:32.618Z,6.30
2023-04-17T07:04:00.788Z,6.53
2023-04-17T07:06:29.901Z,7.63
2023-04-17T07:08:57.966Z,6.43
2023-04-17T07:11:26.251Z,6.37
2023-04-17T07:13:55.764Z,5.97
2023-04-17T07:16:23.976Z,5.73
2023-04-17T07:18:52.557Z,5.87
2023-04-17T07:21:21.030Z,6.57
2023-04-17T07:23:49.394Z,8.60
2023-04-17T07:26:17.539Z,7.93
2023-04-17T07:28:46.447Z,5.50
2023-04-17T07:31:16.273Z,5.23
2023-04-17T07:33:44.507Z,6.83
2023-04-17T07:36:13.067Z,5.03
2023-04-17T07:38:41.947Z,4.93
2023-04-17T07:41:10.347Z,4.47
2023-04-17T07:43:38.981Z,5.43
2023-04-17T07:46:07.480Z,5.63
2023-04-17T07:48:39.795Z,5.50
2023-04-17T07:51:08.216Z,5.20
2023-04-17T07:53:38.717Z,4.50
2023-04-17T07:56:07.391Z,4.67
2023-04-17T07:58:36.519Z,6.10
2023-04-17T08:01:06.054Z,4.83
2023-04-17T08:03:34.410Z,6.33
2023-04-17T08:06:04.172Z,5.13
2023-04-17T08:08:32.640Z,4.83
2023-04-17T08:11:00.659Z,4.60
2023-04-17T08:13:30.837Z,5.87
2023-04-17T08:15:59.703Z,4.50
2023-04-17T08:18:27.901Z,4.53
2023-04-17T08:20:55.947Z,4.60
2023-04-17T08:23:26.032Z,4.73
2023-04-17T08:25:54.092Z,3.93
2023-04-17T08:28:22.069Z,3.77
2023-04-17T08:30:50.220Z,4.10
2023-04-17T08:33:18.664Z,3.90
2023-04-17T08:35:47.082Z,4.30
2023-04-17T08:38:15.937Z,4.37
2023-04-17T08:40:52.189Z,4.37
2023-04-17T08:43:21.275Z,5.43
2023-04-17T08:45:54.234Z,4.20
2023-04-17T08:48:23.100Z,4.60
2023-04-17T08:50:52.944Z,3.90
2023-04-17T08:53:21.832Z,3.90
2023-04-17T08:55:51.304Z,3.63
2023-04-17T08:58:21.961Z,3.80
2023-04-17T09:00:50.445Z,3.57
2023-04-17T09:03:18.490Z,3.20
2023-04-17T09:05:46.938Z,4.53
2023-04-17T09:08:20.901Z,4.37
2023-04-17T09:10:53.747Z,4.10
2023-04-17T09:13:25.068Z,4.10
2023-04-17T09:16:06.359Z,4.03
2023-04-17T09:18:35.654Z,3.80
2023-04-17T09:21:05.265Z,4.87
2023-04-17T09:23:47.124Z,4.80
2023-04-17T09:26:18.473Z,4.43
2023-04-17T09:29:04.251Z,4.37
2023-04-17T09:31:34.604Z,3.83
2023-04-17T09:34:04.873Z,4.43
2023-04-17T09:36:36.899Z,4.20
2023-04-17T09:39:06.349Z,4.10
2023-04-17T09:41:39.474Z,5.43
2023-04-17T09:44:07.568Z,4.90
2023-04-17T09:46:38.288Z,4.40
2023-04-17T09:49:12.314Z,3.87
2023-04-17T09:51:41.028Z,4.00
2023-04-17T09:54:11.746Z,4.93
2023-04-17T09:56:42.148Z,3.63
2023-04-17T09:59:11.161Z,3.50
2023-04-17T10:01:40.885Z,3.47
2023-04-17T10:04:09.527Z,3.30
2023-04-17T10:06:37.914Z,3.80
2023-04-17T10:09:06.043Z,3.60
2023-04-17T10:11:38.696Z,2.70
2023-04-17T10:14:13.197Z,3.47
2023-04-17T10:16:44.010Z,3.07
2023-04-17T10:19:31.997Z,2.80
2023-04-17T10:22:31.742Z,2.77
2023-04-17T10:25:18.869Z,2.47
2023-04-17T10:27:48.807Z,2.70
2023-04-17T10:32:48.140Z,3.30
2023-04-17T10:35:35.923Z,3.20
2023-04-17T10:38:06.361Z,2.60
2023-04-17T10:40:35.999Z,3.13
2023-04-17T10:43:12.552Z,2.70
2023-04-17T10:45:57.247Z,2.77
2023-04-17T10:48:29.989Z,2.47
2023-04-17T10:50:58.501Z,2.50
2023-04-17T10:53:40.959Z,2.53
2023-04-17T10:56:10.339Z,2.33
2023-04-17T10:58:57.077Z,2.00
2023-04-17T11:01:29.020Z,2.40
2023-04-17T11:03:59.658Z,2.43
2023-04-17T11:06:29.350Z,2.50
2023-04-17T11:08:58.091Z,2.30
2023-04-17T11:11:40.617Z,2.00
2023-04-17T11:14:14.638Z,2.83
2023-04-17T11:16:46.354Z,2.90
2023-04-17T11:19:19.888Z,2.90
2023-04-17T11:21:50.532Z,2.70
2023-04-17T11:24:24.566Z,3.33
2023-04-17T11:26:52.791Z,2.40
2023-04-17T11:29:22.491Z,2.40
2023-04-17T11:31:53.281Z,2.30
2023-04-17T11:34:22.631Z,2.40
2023-04-17T11:36:51.260Z,2.17
2023-04-17T11:39:19.943Z,2.73
2023-04-17T11:41:48.010Z,2.67
2023-04-17T11:44:16.712Z,2.60
2023-04-17T11:46:44.966Z,2.30
2023-04-17T11:49:14.570Z,2.50
2023-04-17T11:51:46.304Z,2.10
2023-04-17T11:54:22.082Z,2.27
2023-04-17T11:56:59.907Z,2.57
2023-04-17T11:59:32.196Z,2.13
2023-04-17T12:02:02.034Z,2.60
2023-04-17T12:04:35.165Z,2.60
2023-04-17T12:07:04.029Z,2.63
2023-04-17T12:09:32.694Z,3.63
2023-04-17T12:12:03.975Z,4.50
2023-04-17T12:14:32.139Z,4.40
2023-04-17T12:17:01.490Z,3.03
2023-04-17T12:19:31.842Z,2.90
2023-04-17T12:22:01.650Z,2.53
2023-04-17T12:24:30.247Z,3.00
2023-04-17T12:26:58.900Z,2.60
2023-04-17T12:29:36.766Z,2.57
2023-04-17T12:32:12.919Z,2.67
2023-04-17T12:34:41.437Z,3.17
2023-04-17T12:37:11.626Z,2.73
2023-04-17T12:39:39.588Z,3.00
2023-04-17T12:42:07.608Z,3.00
2023-04-17T12:44:36.213Z,3.37
2023-04-17T12:47:04.323Z,3.10
2023-04-17T12:49:32.494Z,3.30
2023-04-17T12:52:02.581Z,2.67
2023-04-17T12:54:33.360Z,3.70
2023-04-17T12:57:01.598Z,5.07
2023-04-17T12:59:30.279Z,4.97
2023-04-17T13:01:58.708Z,4.73
2023-04-17T13:04:27.122Z,5.13
2023-04-17T13:06:58.211Z,5.70
2023-04-17T13:09:26.928Z,4.73
2023-04-17T13:11:57.761Z,4.60
2023-04-17T13:14:26.033Z,4.07
2023-04-17T13:16:54.215Z,6.43
2023-04-17T13:19:22.489Z,5.43
2023-04-17T13:21:52.431Z,6.17
2023-04-17T13:24:20.539Z,6.20
2023-04-17T13:26:48.574Z,6.00
2023-04-17T13:29:19.530Z,6.07
2023-04-17T13:31:47.952Z,6.10
2023-04-17T13:34:16.330Z,6.20
2023-04-17T13:36:45.141Z,6.87
2023-04-17T13:39:13.840Z,7.10
2023-04-17T13:41:42.355Z,8.30
2023-04-17T13:44:10.591Z,6.97
2023-04-17T13:46:40.958Z,7.93
2023-04-17T13:49:14.797Z,7.03
2023-04-17T13:51:45.607Z,5.17
2023-04-17T13:54:14.199Z,4.20
2023-04-17T13:56:42.859Z,3.63
2023-04-17T13:59:11.604Z,4.17
2023-04-17T14:01:41.440Z,3.90
2023-04-17T14:04:09.949Z,4.73
2023-04-17T14:06:38.351Z,4.50
2023-04-17T14:09:07.533Z,3.97
2023-04-17T14:11:35.507Z,3.47
2023-04-17T14:14:03.506Z,3.50
2023-04-17T14:16:31.654Z,3.03
2023-04-17T14:19:06.686Z,3.00
2023-04-17T14:21:41.302Z,2.83
2023-04-17T14:24:09.364Z,1.90
2023-04-17T14:26:38.252Z,1.83
2023-04-17T14:29:06.281Z,1.80
2023-04-17T14:31:34.410Z,1.77
2023-04-17T14:34:04.390Z,1.53
2023-04-17T14:36:32.398Z,1.87
2023-04-17T14:39:00.767Z,1.73
2023-04-17T14:41:30.832Z,1.73
2023-04-17T14:43:58.844Z,2.00
2023-04-17T14:46:27.857Z,2.40
2023-04-17T14:48:56.834Z,1.80
2023-04-17T14:51:27.260Z,1.70
2023-04-17T14:53:59.159Z,1.53
2023-04-17T14:56:27.417Z,1.40
2023-04-17T14:58:55.951Z,1.90
2023-04-17T15:01:23.977Z,1.13
2023-04-17T15:03:52.466Z,1.00
2023-04-17T15:06:20.593Z,1.00
2023-04-17T15:08:49.968Z,0.73
2023-04-17T15:11:18.032Z,0.60
2023-04-17T15:13:46.044Z,0.43
2023-04-17T15:16:14.062Z,0.50
2023-04-17T15:18:42.050Z,0.60
2023-04-17T15:21:10.100Z,0.40
2023-04-17T15:23:38.786Z,0.20
2023-04-17T15:26:09.202Z,0.40
2023-04-17T15:28:37.593Z,0.70
2023-04-17T15:31:05.587Z,0.47
2023-04-17T15:33:34.267Z,0.47
2023-04-17T15:36:03.027Z,0.43
2023-04-17T15:38:30.956Z,0.53
2023-04-17T15:40:58.988Z,2.00
2023-04-17T15:43:28.523Z,3.20
2023-04-17T15:45:56.611Z,0.37
2023-04-17T15:48:24.602Z,0.47
2023-04-17T15:50:53.235Z,0.30
2023-04-17T15:53:21.441Z,0.50
2023-04-17T15:55:49.602Z,0.40
2023-04-17T15:58:17.630Z,0.97
2023-04-17T16:00:47.028Z,0.80
2023-04-17T16:03:15.213Z,1.07
2023-04-17T16:05:43.351Z,0.70
2023-04-17T16:08:11.295Z,0.87
2023-04-17T16:10:39.276Z,0.90
2023-04-17T16:13:07.234Z,0.80
2023-04-17T16:15:35.279Z,1.20
2023-04-17T16:18:05.398Z,1.10
2023-04-17T16:20:33.484Z,1.23
2023-04-17T16:23:01.394Z,0.80
2023-04-17T16:25:29.346Z,0.90
2023-04-17T16:27:57.326Z,1.20
2023-04-17T16:30:25.358Z,1.30
2023-04-17T16:32:53.394Z,1.30
2023-04-17T16:35:23.055Z,1.47
2023-04-17T16:37:51.069Z,1.20
2023-04-17T16:40:19.926Z,1.70
2023-04-17T16:42:47.992Z,1.80
2023-04-17T16:45:15.996Z,1.73
2023-04-17T16:47:44.225Z,1.70
2023-04-17T16:50:12.762Z,1.77
2023-04-17T16:52:42.190Z,1.77
2023-04-17T16:55:11.010Z,1.83
2023-04-17T16:57:40.760Z,1.80
2023-04-17T17:00:11.339Z,1.90
2023-04-17T17:02:39.531Z,1.60
2023-04-17T17:05:09.227Z,1.63
2023-04-17T17:07:37.235Z,2.23
2023-04-17T17:10:08.191Z,1.60
2023-04-17T17:12:36.174Z,1.67
2023-04-17T17:15:05.174Z,1.90
2023-04-17T17:17:33.355Z,2.00
2023-04-17T17:20:01.767Z,1.83
2023-04-17T17:22:29.769Z,2.30
2023-04-17T17:24:57.795Z,2.30
2023-04-17T17:27:27.541Z,2.40
2023-04-17T17:29:56.578Z,2.37
2023-04-17T17:32:25.778Z,2.57
2023-04-17T17:34:53.977Z,2.23
2023-04-17T17:37:21.962Z,2.70
2023-04-17T17:39:50.062Z,6.47
2023-04-17T17:42:18.212Z,3.30
2023-04-17T17:44:47.671Z,3.33
2023-04-17T17:47:15.700Z,2.73
2023-04-17T17:49:43.707Z,2.97
2023-04-17T17:52:11.856Z,2.63
2023-04-17T17:54:40.070Z,2.20
2023-04-17T17:57:09.151Z,2.40
2023-04-17T17:59:37.165Z,2.10
2023-04-17T18:05:18.697Z,1.60
2023-04-17T18:07:47.057Z,1.93
2023-04-17T18:10:15.250Z,2.20
2023-04-17T18:12:43.429Z,2.00
2023-04-17T18:15:12.236Z,2.13
2023-04-17T18:17:46.686Z,1.97
2023-04-17T18:20:15.139Z,1.60
2023-04-17T18:22:43.164Z,2.97
2023-04-17T18:25:12.083Z,3.13
2023-04-17T18:27:40.030Z,2.10
2023-04-17T18:30:10.178Z,2.20
2023-04-17T18:32:38.200Z,1.80
2023-04-17T18:35:08.779Z,2.13
2023-04-17T18:37:36.790Z,4.03
2023-04-17T18:40:07.475Z,3.60
2023-04-17T18:42:35.444Z,3.10
2023-04-17T18:45:03.666Z,2.97
2023-04-17T18:47:31.824Z,2.90
2023-04-17T18:49:59.849Z,3.10
2023-04-17T18:52:29.366Z,4.30
2023-04-17T18:54:57.364Z,3.20
2023-04-17T18:57:26.145Z,2.87
2023-04-17T18:59:54.857Z,6.50
2023-04-17T19:02:22.934Z,4.30
2023-04-17T19:04:51.126Z,3.03
2023-04-17T19:07:19.169Z,2.40
2023-04-17T19:09:48.619Z,3.10
2023-04-17T19:12:16.805Z,3.70
2023-04-17T19:14:44.746Z,3.50
2023-04-17T19:17:12.927Z,3.40
2023-04-17T19:19:41.064Z,2.80
2023-04-17T19:22:09.091Z,3.23
2023-04-17T19:24:37.316Z,2.80
2023-04-17T19:27:06.835Z,2.67
2023-04-17T19:29:34.938Z,2.47
2023-04-17T19:32:03.442Z,2.83
2023-04-17T19:34:31.412Z,3.93
2023-04-17T19:36:59.473Z,2.90
2023-04-17T19:39:28.482Z,2.87
2023-04-17T19:41:56.452Z,2.63
2023-04-17T19:44:27.820Z,2.50
2023-04-17T19:46:56.887Z,2.60
2023-04-17T19:49:24.960Z,2.17
2023-04-17T19:51:52.917Z,2.53
2023-04-17T19:54:21.076Z,2.67
2023-04-17T19:56:49.251Z,2.67
2023-04-17T19:59:17.218Z,2.43
2023-04-17T20:01:46.880Z,2.53
2023-04-17T20:04:16.712Z,2.87
2023-04-17T20:06:44.963Z,2.43
2023-04-17T20:09:14.703Z,2.83
2023-04-17T20:11:43.001Z,2.70
2023-04-17T20:14:11.379Z,3.00
2023-04-17T20:16:39.523Z,3.00
2023-04-17T20:19:09.650Z,3.23
2023-04-17T20:21:37.746Z,2.90
2023-04-17T20:24:06.410Z,3.20
2023-04-17T20:26:37.266Z,3.00
2023-04-17T20:29:05.776Z,3.30
2023-04-17T20:31:36.446Z,3.67
2023-04-17T20:34:07.008Z,4.10
2023-04-17T20:36:36.708Z,4.10
2023-04-17T20:39:04.803Z,5.33
2023-04-17T20:41:33.834Z,5.27
2023-04-17T20:44:02.253Z,5.63
2023-04-17T20:46:30.709Z,5.73
2023-04-17T20:48:59.168Z,5.43
2023-04-17T20:51:27.632Z,4.70
2023-04-17T20:53:57.136Z,5.20
2023-04-17T20:56:25.413Z,5.50
2023-04-17T20:58:53.877Z,4.37
2023-04-17T21:01:21.927Z,7.17
2023-04-17T21:03:50.096Z,5.93
2023-04-17T21:06:21.155Z,5.40
2023-04-17T21:08:49.216Z,7.83
2023-04-17T21:11:18.574Z,6.77
2023-04-17T21:13:46.486Z,6.80
2023-04-17T21:16:15.053Z,6.70
2023-04-17T21:18:43.375Z,6.27
2023-04-17T21:21:11.361Z,6.83
2023-04-17T21:23:39.455Z,7.60
2023-04-17T21:26:07.716Z,8.57
2023-04-17T21:28:43.148Z,10.77
2023-04-17T21:31:15.626Z,8.50
2023-04-17T21:33:44.258Z,7.97
2023-04-17T21:36:15.971Z,5.80
2023-04-17T21:38:45.199Z,6.10
2023-04-17T21:41:13.433Z,7.03
2023-04-17T21:43:42.885Z,6.43
2023-04-17T21:46:11.587Z,6.80
2023-04-17T21:48:40.736Z,6.70
2023-04-17T21:51:08.946Z,7.30
2023-04-17T21:53:37.951Z,7.53
2023-04-17T21:56:07.233Z,6.63
2023-04-17T21:58:35.525Z,7.80
2023-04-17T22:01:05.091Z,7.30
2023-04-17T22:03:33.198Z,7.20
2023-04-17T22:06:01.912Z,7.20
2023-04-17T22:08:29.977Z,6.90
2023-04-17T22:10:58.029Z,6.93
2023-04-17T22:13:26.621Z,6.80
2023-04-17T22:15:56.391Z,6.87
2023-04-17T22:18:28.077Z,6.97
2023-04-17T22:20:56.279Z,5.97
2023-04-17T22:23:24.630Z,6.33
2023-04-17T22:25:52.968Z,6.90
2023-04-17T22:28:23.042Z,6.17
2023-04-17T22:30:52.655Z,6.03
2023-04-17T22:33:35.981Z,7.20
2023-04-17T22:36:04.910Z,6.57
2023-04-17T22:38:36.626Z,7.37
2023-04-17T22:41:08.223Z,7.10
2023-04-17T22:43:37.415Z,6.90
2023-04-17T22:46:06.879Z,7.13
2023-04-17T22:48:37.222Z,7.37
2023-04-17T22:51:06.302Z,7.17
2023-04-17T22:53:37.643Z,7.80
2023-04-17T22:56:07.035Z,8.07
2023-04-17T22:58:38.956Z,8.03
2023-04-17T23:01:07.133Z,8.33
2023-04-17T23:03:38.408Z,6.97
2023-04-17T23:06:07.556Z,7.57
2023-04-17T23:08:35.967Z,9.63
2023-04-17T23:11:04.962Z,9.27
2023-04-17T23:13:33.146Z,10.23
2023-04-17T23:16:01.149Z,9.13
2023-04-17T23:18:29.100Z,8.67
2023-04-17T23:20:58.591Z,9.57
2023-04-17T23:23:26.850Z,9.47
2023-04-17T23:25:54.907Z,9.27
2023-04-17T23:28:23.097Z,8.80
2023-04-17T23:30:51.211Z,8.73
2023-04-17T23:33:19.318Z,9.30
2023-04-17T23:35:47.380Z,10.70
2023-04-17T23:38:16.784Z,11.27
2023-04-17T23:40:44.864Z,10.53
2023-04-17T23:43:13.139Z,11.83
2023-04-17T23:45:41.180Z,12.93
2023-04-17T23:48:09.854Z,12.93
2023-04-17T23:50:37.837Z,12.83
2023-04-17T23:53:06.057Z,14.17
2023-04-17T23:55:35.792Z,13.80
2023-04-17T23:58:03.968Z,13.33
